Sanar-5 — UBPI4 — position and weather

sailwx.info

Track history (hours):
 
Tides and Currents Weather Stations Pressure Air Temp Water Temp Dewpoint Dewpoint Depression Visibility Wind Speed Wind Dir Waves Ship Positions

Sanar-5

Last reported at 2018-Apr-19 23:06 UTC. Time now 2018-Apr-23 19:32 UTC.
Position N 45°29' E 036°44'.

Length 140 m; draft 2.9 m.

Type: Ship. MMSI: 273350860.

Date/timePositionNaut miles runAvg speedWind from/ knotsBaromVisibWave heightAir tempDewpointWater temp
2018-Apr-19 23:06N 45°29' E 036°44'2 7.0
2018-Apr-19 22:50N 45°27' E 036°43'2 7.2
2018-Apr-19 22:30N 45°25' E 036°42'4 7.5
2018-Apr-19 22:00N 45°22' E 036°40'4 8.0
2018-Apr-19 21:31N 45°20' E 036°35'6 0.2
2018-Apr-18 19:05N 45°16' E 036°28'1 6.9
2018-Apr-18 18:56N 45°17' E 036°29'3 5.9
2018-Apr-18 18:28N 45°19' E 036°32'3 6.6
2018-Apr-18 18:00N 45°20' E 036°36'3 6.2
2018-Apr-18 17:30N 45°22' E 036°40'4 7.1
2018-Apr-18 17:00N 45°25' E 036°41'4 6.8
2018-Apr-18 16:29N 45°29' E 036°41'2 4.5
2018-Apr-18 16:00N 45°31' E 036°40'1 0.7
2018-Apr-18 15:10N 45°30' E 036°40'0 1.2
2018-Apr-18 15:00N 45°30' E 036°40'  
2018-Apr-10 23:29N 45°26' E 036°42'3 7.0
2018-Apr-10 23:00N 45°22' E 036°40'3 6.7
2018-Apr-10 22:30N 45°20' E 036°36'8 0.3
2018-Apr-10 00:16N 45°15' E 036°28'3 6.7
2018-Apr-09 23:52N 45°18' E 036°29'3 7.6
2018-Apr-09 23:30N 45°19' E 036°33'  
Track history (hours):
 
Tides and Currents Weather Stations Pressure Air Temp Water Temp Dewpoint Dewpoint Depression Visibility Wind Speed Wind Dir Waves Ship Positions

Sanar-5

Last reported at 2018-Apr-19 23:06 UTC. Time now 2018-Apr-23 19:32 UTC.
Position N 45°29' E 036°44'.

Length 140 m; draft 2.9 m.

Type: Ship. MMSI: 273350860.

Date/timePositionNaut miles runAvg speedWind from/ knotsBaromVisibWave heightAir tempDewpointWater temp
2018-Apr-19 23:06N 45°29' E 036°44'2 7.0
2018-Apr-19 22:50N 45°27' E 036°43'2 7.2
2018-Apr-19 22:30N 45°25' E 036°42'4 7.5
2018-Apr-19 22:00N 45°22' E 036°40'4 8.0
2018-Apr-19 21:31N 45°20' E 036°35'6 0.2
2018-Apr-18 19:05N 45°16' E 036°28'1 6.9
2018-Apr-18 18:56N 45°17' E 036°29'3 5.9
2018-Apr-18 18:28N 45°19' E 036°32'3 6.6
2018-Apr-18 18:00N 45°20' E 036°36'3 6.2
2018-Apr-18 17:30N 45°22' E 036°40'4 7.1
2018-Apr-18 17:00N 45°25' E 036°41'4 6.8
2018-Apr-18 16:29N 45°29' E 036°41'2 4.5
2018-Apr-18 16:00N 45°31' E 036°40'1 0.7
2018-Apr-18 15:10N 45°30' E 036°40'0 1.2
2018-Apr-18 15:00N 45°30' E 036°40'  
2018-Apr-10 23:29N 45°26' E 036°42'3 7.0
2018-Apr-10 23:00N 45°22' E 036°40'3 6.7
2018-Apr-10 22:30N 45°20' E 036°36'8 0.3
2018-Apr-10 00:16N 45°15' E 036°28'3 6.7
2018-Apr-09 23:52N 45°18' E 036°29'3 7.6
2018-Apr-09 23:30N 45°19' E 036°33'  

Dump ship's entire track history